sensor_id;sensor_type;location;lat;lon;timestamp;P1;durP1;ratioP1;P2;durP2;ratioP2
27985;SDS011;15453;53.692;10.168;2023-03-11T00:02:00;10.65;;;6.47;;
27985;SDS011;15453;53.692;10.168;2023-03-11T00:04:25;11.55;;;7.38;;
27985;SDS011;15453;53.692;10.168;2023-03-11T00:06:51;10.43;;;7.85;;
27985;SDS011;15453;53.692;10.168;2023-03-11T00:09:16;10.02;;;7.40;;
27985;SDS011;15453;53.692;10.168;2023-03-11T00:11:41;10.82;;;7.55;;
27985;SDS011;15453;53.692;10.168;2023-03-11T00:14:06;9.77;;;7.22;;
27985;SDS011;15453;53.692;10.168;2023-03-11T00:16:32;12.77;;;7.50;;
27985;SDS011;15453;53.692;10.168;2023-03-11T00:18:57;12.70;;;7.95;;
27985;SDS011;15453;53.692;10.168;2023-03-11T00:21:22;12.38;;;8.45;;
27985;SDS011;15453;53.692;10.168;2023-03-11T00:23:47;11.32;;;7.95;;
27985;SDS011;15453;53.692;10.168;2023-03-11T00:26:13;12.07;;;8.02;;
27985;SDS011;15453;53.692;10.168;2023-03-11T00:28:38;11.40;;;7.85;;
27985;SDS011;15453;53.692;10.168;2023-03-11T00:31:03;14.10;;;8.68;;
27985;SDS011;15453;53.692;10.168;2023-03-11T00:33:29;12.30;;;8.98;;
27985;SDS011;15453;53.692;10.168;2023-03-11T00:35:55;13.73;;;9.80;;
27985;SDS011;15453;53.692;10.168;2023-03-11T00:38:20;13.55;;;9.95;;
27985;SDS011;15453;53.692;10.168;2023-03-11T00:40:46;13.02;;;9.23;;
27985;SDS011;15453;53.692;10.168;2023-03-11T00:43:13;13.40;;;9.35;;
27985;SDS011;15453;53.692;10.168;2023-03-11T00:45:39;16.80;;;11.00;;
27985;SDS011;15453;53.692;10.168;2023-03-11T00:48:05;13.82;;;10.40;;
27985;SDS011;15453;53.692;10.168;2023-03-11T00:50:32;14.82;;;10.20;;
27985;SDS011;15453;53.692;10.168;2023-03-11T00:52:59;16.55;;;11.57;;
27985;SDS011;15453;53.692;10.168;2023-03-11T00:55:25;18.45;;;12.45;;
27985;SDS011;15453;53.692;10.168;2023-03-11T00:57:53;16.73;;;12.05;;
27985;SDS011;15453;53.692;10.168;2023-03-11T01:00:20;15.13;;;11.05;;
27985;SDS011;15453;53.692;10.168;2023-03-11T01:02:47;17.40;;;11.55;;
27985;SDS011;15453;53.692;10.168;2023-03-11T01:05:12;19.20;;;12.20;;
27985;SDS011;15453;53.692;10.168;2023-03-11T01:07:38;15.93;;;11.00;;
27985;SDS011;15453;53.692;10.168;2023-03-11T01:10:05;18.88;;;11.63;;
27985;SDS011;15453;53.692;10.168;2023-03-11T01:12:32;15.43;;;10.60;;
27985;SDS011;15453;53.692;10.168;2023-03-11T01:14:57;16.30;;;11.95;;
27985;SDS011;15453;53.692;10.168;2023-03-11T01:17:23;16.48;;;11.60;;
27985;SDS011;15453;53.692;10.168;2023-03-11T01:19:48;16.23;;;11.60;;
27985;SDS011;15453;53.692;10.168;2023-03-11T01:22:14;15.93;;;11.13;;
27985;SDS011;15453;53.692;10.168;2023-03-11T01:24:40;17.95;;;11.68;;
27985;SDS011;15453;53.692;10.168;2023-03-11T01:27:05;16.88;;;12.23;;
27985;SDS011;15453;53.692;10.168;2023-03-11T01:29:30;15.70;;;11.98;;
27985;SDS011;15453;53.692;10.168;2023-03-11T01:31:56;18.92;;;11.73;;
27985;SDS011;15453;53.692;10.168;2023-03-11T01:34:21;16.60;;;12.20;;
27985;SDS011;15453;53.692;10.168;2023-03-11T01:36:46;17.20;;;12.65;;
27985;SDS011;15453;53.692;10.168;2023-03-11T01:39:11;18.02;;;12.60;;
27985;SDS011;15453;53.692;10.168;2023-03-11T01:41:37;16.45;;;11.38;;
27985;SDS011;15453;53.692;10.168;2023-03-11T01:44:02;15.70;;;11.35;;
27985;SDS011;15453;53.692;10.168;2023-03-11T01:46:34;15.15;;;11.43;;
27985;SDS011;15453;53.692;10.168;2023-03-11T01:49:04;16.25;;;11.52;;
27985;SDS011;15453;53.692;10.168;2023-03-11T01:51:42;15.27;;;11.45;;
27985;SDS011;15453;53.692;10.168;2023-03-11T01:54:14;16.92;;;11.32;;
27985;SDS011;15453;53.692;10.168;2023-03-11T01:56:42;19.15;;;12.13;;
27985;SDS011;15453;53.692;10.168;2023-03-11T01:59:10;14.52;;;10.75;;
27985;SDS011;15453;53.692;10.168;2023-03-11T02:01:39;16.83;;;11.65;;
27985;SDS011;15453;53.692;10.168;2023-03-11T02:04:10;16.85;;;11.80;;
27985;SDS011;15453;53.692;10.168;2023-03-11T02:06:36;15.55;;;11.38;;
27985;SDS011;15453;53.692;10.168;2023-03-11T02:09:02;15.38;;;10.70;;
27985;SDS011;15453;53.692;10.168;2023-03-11T02:11:27;13.88;;;10.88;;
27985;SDS011;15453;53.692;10.168;2023-03-11T02:13:55;15.18;;;11.30;;
27985;SDS011;15453;53.692;10.168;2023-03-11T02:16:26;15.02;;;11.15;;
27985;SDS011;15453;53.692;10.168;2023-03-11T02:18:52;14.27;;;10.55;;
27985;SDS011;15453;53.692;10.168;2023-03-11T02:21:20;16.08;;;11.55;;
27985;SDS011;15453;53.692;10.168;2023-03-11T02:26:59;15.15;;;9.88;;
27985;SDS011;15453;53.692;10.168;2023-03-11T02:29:31;13.73;;;10.35;;
27985;SDS011;15453;53.692;10.168;2023-03-11T02:31:57;15.80;;;11.30;;
27985;SDS011;15453;53.692;10.168;2023-03-11T02:34:26;14.13;;;10.93;;
27985;SDS011;15453;53.692;10.168;2023-03-11T02:36:54;18.33;;;11.40;;
27985;SDS011;15453;53.692;10.168;2023-03-11T02:39:29;16.52;;;12.18;;
27985;SDS011;15453;53.692;10.168;2023-03-11T02:41:55;16.25;;;12.18;;
27985;SDS011;15453;53.692;10.168;2023-03-11T02:44:21;17.55;;;12.10;;
27985;SDS011;15453;53.692;10.168;2023-03-11T02:46:46;16.80;;;11.45;;
27985;SDS011;15453;53.692;10.168;2023-03-11T02:49:12;20.45;;;12.77;;
27985;SDS011;15453;53.692;10.168;2023-03-11T02:51:38;16.48;;;11.55;;
27985;SDS011;15453;53.692;10.168;2023-03-11T02:54:04;16.48;;;10.93;;
27985;SDS011;15453;53.692;10.168;2023-03-11T02:56:29;16.20;;;11.50;;
27985;SDS011;15453;53.692;10.168;2023-03-11T02:58:55;16.33;;;11.27;;
27985;SDS011;15453;53.692;10.168;2023-03-11T03:01:21;16.90;;;12.02;;
27985;SDS011;15453;53.692;10.168;2023-03-11T03:03:46;15.50;;;10.35;;
27985;SDS011;15453;53.692;10.168;2023-03-11T03:06:11;17.45;;;11.30;;
27985;SDS011;15453;53.692;10.168;2023-03-11T03:08:37;13.68;;;10.55;;
27985;SDS011;15453;53.692;10.168;2023-03-11T03:11:02;15.80;;;11.00;;
27985;SDS011;15453;53.692;10.168;2023-03-11T03:13:28;14.25;;;10.15;;
27985;SDS011;15453;53.692;10.168;2023-03-11T03:15:54;13.50;;;10.18;;
27985;SDS011;15453;53.692;10.168;2023-03-11T03:18:20;15.95;;;11.18;;
27985;SDS011;15453;53.692;10.168;2023-03-11T03:20:45;14.23;;;9.77;;
27985;SDS011;15453;53.692;10.168;2023-03-11T03:23:10;15.55;;;10.05;;
27985;SDS011;15453;53.692;10.168;2023-03-11T03:25:35;15.00;;;9.50;;
27985;SDS011;15453;53.692;10.168;2023-03-11T03:28:00;14.60;;;9.45;;
27985;SDS011;15453;53.692;10.168;2023-03-11T03:30:26;12.88;;;9.30;;
27985;SDS011;15453;53.692;10.168;2023-03-11T03:32:53;13.52;;;9.07;;
27985;SDS011;15453;53.692;10.168;2023-03-11T03:35:19;12.73;;;8.93;;
27985;SDS011;15453;53.692;10.168;2023-03-11T03:37:44;12.23;;;8.57;;
27985;SDS011;15453;53.692;10.168;2023-03-11T03:40:10;10.68;;;7.68;;
27985;SDS011;15453;53.692;10.168;2023-03-11T03:42:35;12.32;;;9.45;;
27985;SDS011;15453;53.692;10.168;2023-03-11T03:45:01;11.02;;;8.15;;
27985;SDS011;15453;53.692;10.168;2023-03-11T03:47:28;12.13;;;8.20;;
27985;SDS011;15453;53.692;10.168;2023-03-11T03:49:53;11.27;;;8.20;;
27985;SDS011;15453;53.692;10.168;2023-03-11T03:52:18;11.10;;;7.93;;
27985;SDS011;15453;53.692;10.168;2023-03-11T03:54:44;12.88;;;7.70;;
27985;SDS011;15453;53.692;10.168;2023-03-11T03:57:09;13.57;;;8.43;;
27985;SDS011;15453;53.692;10.168;2023-03-11T03:59:34;12.57;;;8.50;;
27985;SDS011;15453;53.692;10.168;2023-03-11T04:02:00;15.75;;;9.23;;
27985;SDS011;15453;53.692;10.168;2023-03-11T04:04:25;11.88;;;8.80;;
27985;SDS011;15453;53.692;10.168;2023-03-11T04:06:50;11.77;;;8.95;;
27985;SDS011;15453;53.692;10.168;2023-03-11T04:09:16;11.18;;;7.82;;
27985;SDS011;15453;53.692;10.168;2023-03-11T04:11:41;12.07;;;8.27;;
27985;SDS011;15453;53.692;10.168;2023-03-11T04:14:06;12.30;;;8.80;;
27985;SDS011;15453;53.692;10.168;2023-03-11T04:16:31;12.85;;;9.35;;
27985;SDS011;15453;53.692;10.168;2023-03-11T04:18:57;12.93;;;8.93;;
27985;SDS011;15453;53.692;10.168;2023-03-11T04:21:22;10.60;;;7.97;;
27985;SDS011;15453;53.692;10.168;2023-03-11T04:23:47;11.20;;;8.20;;
27985;SDS011;15453;53.692;10.168;2023-03-11T04:26:13;13.95;;;8.57;;
27985;SDS011;15453;53.692;10.168;2023-03-11T04:28:38;12.30;;;8.00;;
27985;SDS011;15453;53.692;10.168;2023-03-11T04:31:04;11.93;;;8.45;;
27985;SDS011;15453;53.692;10.168;2023-03-11T04:33:29;10.48;;;7.93;;
27985;SDS011;15453;53.692;10.168;2023-03-11T04:35:54;11.25;;;8.57;;
27985;SDS011;15453;53.692;10.168;2023-03-11T04:38:20;11.82;;;7.88;;
27985;SDS011;15453;53.692;10.168;2023-03-11T04:40:45;11.90;;;8.20;;
27985;SDS011;15453;53.692;10.168;2023-03-11T04:43:10;14.45;;;8.52;;
27985;SDS011;15453;53.692;10.168;2023-03-11T04:45:38;10.90;;;7.75;;
27985;SDS011;15453;53.692;10.168;2023-03-11T04:48:04;13.27;;;8.57;;
27985;SDS011;15453;53.692;10.168;2023-03-11T04:50:30;12.35;;;8.27;;
27985;SDS011;15453;53.692;10.168;2023-03-11T04:52:55;14.63;;;8.10;;
27985;SDS011;15453;53.692;10.168;2023-03-11T04:55:21;11.45;;;8.32;;
27985;SDS011;15453;53.692;10.168;2023-03-11T04:57:46;11.07;;;7.88;;
27985;SDS011;15453;53.692;10.168;2023-03-11T05:00:11;11.27;;;8.00;;
27985;SDS011;15453;53.692;10.168;2023-03-11T05:02:39;10.30;;;7.70;;
27985;SDS011;15453;53.692;10.168;2023-03-11T05:05:05;11.25;;;8.25;;
27985;SDS011;15453;53.692;10.168;2023-03-11T05:07:32;13.20;;;7.97;;
27985;SDS011;15453;53.692;10.168;2023-03-11T05:09:57;13.40;;;8.23;;
27985;SDS011;15453;53.692;10.168;2023-03-11T05:12:22;11.30;;;8.93;;
27985;SDS011;15453;53.692;10.168;2023-03-11T05:14:48;14.63;;;9.45;;
27985;SDS011;15453;53.692;10.168;2023-03-11T05:17:13;13.77;;;8.65;;
27985;SDS011;15453;53.692;10.168;2023-03-11T05:19:38;12.82;;;8.57;;
27985;SDS011;15453;53.692;10.168;2023-03-11T05:22:04;12.32;;;9.13;;
27985;SDS011;15453;53.692;10.168;2023-03-11T05:24:30;10.57;;;7.82;;
27985;SDS011;15453;53.692;10.168;2023-03-11T05:26:56;12.35;;;8.93;;
27985;SDS011;15453;53.692;10.168;2023-03-11T05:29:22;11.63;;;8.35;;
27985;SDS011;15453;53.692;10.168;2023-03-11T05:31:48;12.45;;;8.88;;
27985;SDS011;15453;53.692;10.168;2023-03-11T05:34:14;14.13;;;9.45;;
27985;SDS011;15453;53.692;10.168;2023-03-11T05:36:39;13.70;;;9.27;;
27985;SDS011;15453;53.692;10.168;2023-03-11T05:39:04;13.35;;;8.52;;
27985;SDS011;15453;53.692;10.168;2023-03-11T05:41:30;13.05;;;8.52;;
27985;SDS011;15453;53.692;10.168;2023-03-11T05:43:55;14.23;;;8.85;;
27985;SDS011;15453;53.692;10.168;2023-03-11T05:46:20;12.20;;;8.68;;
27985;SDS011;15453;53.692;10.168;2023-03-11T05:48:46;11.75;;;8.68;;
27985;SDS011;15453;53.692;10.168;2023-03-11T05:51:11;13.77;;;8.73;;
27985;SDS011;15453;53.692;10.168;2023-03-11T05:53:37;12.02;;;8.60;;
27985;SDS011;15453;53.692;10.168;2023-03-11T05:56:03;12.05;;;8.35;;
27985;SDS011;15453;53.692;10.168;2023-03-11T05:58:29;11.85;;;8.13;;
27985;SDS011;15453;53.692;10.168;2023-03-11T06:00:55;13.57;;;9.13;;
27985;SDS011;15453;53.692;10.168;2023-03-11T06:03:20;14.98;;;8.90;;
27985;SDS011;15453;53.692;10.168;2023-03-11T06:05:46;11.80;;;8.38;;
27985;SDS011;15453;53.692;10.168;2023-03-11T06:08:12;12.68;;;8.35;;
27985;SDS011;15453;53.692;10.168;2023-03-11T06:10:38;11.88;;;8.60;;
27985;SDS011;15453;53.692;10.168;2023-03-11T06:13:03;11.35;;;8.40;;
27985;SDS011;15453;53.692;10.168;2023-03-11T06:15:29;11.13;;;8.05;;
27985;SDS011;15453;53.692;10.168;2023-03-11T06:17:54;11.27;;;8.13;;
27985;SDS011;15453;53.692;10.168;2023-03-11T06:20:20;13.32;;;9.15;;
27985;SDS011;15453;53.692;10.168;2023-03-11T06:22:48;13.20;;;9.07;;
27985;SDS011;15453;53.692;10.168;2023-03-11T06:25:14;12.95;;;8.77;;
27985;SDS011;15453;53.692;10.168;2023-03-11T06:27:39;13.20;;;8.63;;
27985;SDS011;15453;53.692;10.168;2023-03-11T06:30:04;12.35;;;8.55;;
27985;SDS011;15453;53.692;10.168;2023-03-11T06:32:30;13.52;;;8.60;;
27985;SDS011;15453;53.692;10.168;2023-03-11T06:34:56;11.07;;;8.35;;
27985;SDS011;15453;53.692;10.168;2023-03-11T06:37:21;11.68;;;8.45;;
27985;SDS011;15453;53.692;10.168;2023-03-11T06:39:52;14.60;;;8.10;;
27985;SDS011;15453;53.692;10.168;2023-03-11T06:42:17;12.40;;;8.45;;
27985;SDS011;15453;53.692;10.168;2023-03-11T06:44:42;12.90;;;7.78;;
27985;SDS011;15453;53.692;10.168;2023-03-11T06:47:08;12.45;;;8.30;;
27985;SDS011;15453;53.692;10.168;2023-03-11T06:49:33;11.15;;;8.50;;
27985;SDS011;15453;53.692;10.168;2023-03-11T06:51:58;12.40;;;8.48;;
27985;SDS011;15453;53.692;10.168;2023-03-11T06:54:24;10.25;;;7.22;;
27985;SDS011;15453;53.692;10.168;2023-03-11T06:56:49;12.00;;;8.23;;
27985;SDS011;15453;53.692;10.168;2023-03-11T06:59:14;12.02;;;8.27;;
27985;SDS011;15453;53.692;10.168;2023-03-11T07:01:39;13.48;;;7.95;;
27985;SDS011;15453;53.692;10.168;2023-03-11T07:04:05;12.07;;;7.88;;
27985;SDS011;15453;53.692;10.168;2023-03-11T07:06:30;10.48;;;6.82;;
27985;SDS011;15453;53.692;10.168;2023-03-11T07:08:55;11.70;;;8.48;;
27985;SDS011;15453;53.692;10.168;2023-03-11T07:11:22;13.95;;;7.97;;
27985;SDS011;15453;53.692;10.168;2023-03-11T07:13:49;12.38;;;8.15;;
27985;SDS011;15453;53.692;10.168;2023-03-11T07:16:15;10.95;;;7.32;;
27985;SDS011;15453;53.692;10.168;2023-03-11T07:18:45;10.48;;;7.38;;
27985;SDS011;15453;53.692;10.168;2023-03-11T07:21:15;9.85;;;6.97;;
27985;SDS011;15453;53.692;10.168;2023-03-11T07:23:43;11.65;;;6.97;;
27985;SDS011;15453;53.692;10.168;2023-03-11T07:26:09;12.32;;;7.43;;
27985;SDS011;15453;53.692;10.168;2023-03-11T07:28:36;12.25;;;8.00;;
27985;SDS011;15453;53.692;10.168;2023-03-11T07:31:06;14.32;;;8.13;;
27985;SDS011;15453;53.692;10.168;2023-03-11T07:33:32;13.60;;;7.75;;
27985;SDS011;15453;53.692;10.168;2023-03-11T07:35:57;10.10;;;7.55;;
27985;SDS011;15453;53.692;10.168;2023-03-11T07:38:23;10.73;;;7.78;;
27985;SDS011;15453;53.692;10.168;2023-03-11T07:40:56;10.82;;;7.30;;
27985;SDS011;15453;53.692;10.168;2023-03-11T07:43:22;11.82;;;7.57;;
27985;SDS011;15453;53.692;10.168;2023-03-11T07:45:47;11.60;;;7.20;;
27985;SDS011;15453;53.692;10.168;2023-03-11T07:48:12;9.60;;;7.32;;
27985;SDS011;15453;53.692;10.168;2023-03-11T07:50:38;11.73;;;7.45;;
27985;SDS011;15453;53.692;10.168;2023-03-11T07:53:03;10.10;;;6.72;;
27985;SDS011;15453;53.692;10.168;2023-03-11T07:55:28;10.70;;;6.90;;
27985;SDS011;15453;53.692;10.168;2023-03-11T07:57:53;10.40;;;7.00;;
27985;SDS011;15453;53.692;10.168;2023-03-11T08:00:19;10.02;;;6.43;;
27985;SDS011;15453;53.692;10.168;2023-03-11T08:02:44;9.40;;;6.68;;
27985;SDS011;15453;53.692;10.168;2023-03-11T08:05:10;10.57;;;6.78;;
27985;SDS011;15453;53.692;10.168;2023-03-11T08:07:35;10.13;;;6.82;;
27985;SDS011;15453;53.692;10.168;2023-03-11T08:10:00;10.45;;;7.03;;
27985;SDS011;15453;53.692;10.168;2023-03-11T08:12:26;9.20;;;5.85;;
27985;SDS011;15453;53.692;10.168;2023-03-11T08:14:51;8.43;;;6.03;;
27985;SDS011;15453;53.692;10.168;2023-03-11T08:17:16;8.98;;;6.13;;
27985;SDS011;15453;53.692;10.168;2023-03-11T08:19:41;9.73;;;6.10;;
27985;SDS011;15453;53.692;10.168;2023-03-11T08:22:07;11.07;;;6.55;;
27985;SDS011;15453;53.692;10.168;2023-03-11T08:24:32;9.93;;;6.38;;
27985;SDS011;15453;53.692;10.168;2023-03-11T08:26:57;9.30;;;6.22;;
27985;SDS011;15453;53.692;10.168;2023-03-11T08:29:23;7.85;;;5.70;;
27985;SDS011;15453;53.692;10.168;2023-03-11T08:31:48;9.73;;;5.70;;
27985;SDS011;15453;53.692;10.168;2023-03-11T08:34:13;8.27;;;5.55;;
27985;SDS011;15453;53.692;10.168;2023-03-11T08:36:39;10.20;;;5.38;;
27985;SDS011;15453;53.692;10.168;2023-03-11T08:39:05;7.70;;;5.20;;
27985;SDS011;15453;53.692;10.168;2023-03-11T08:41:30;10.38;;;5.45;;
27985;SDS011;15453;53.692;10.168;2023-03-11T08:43:56;7.70;;;5.25;;
27985;SDS011;15453;53.692;10.168;2023-03-11T08:46:26;9.63;;;5.47;;
27985;SDS011;15453;53.692;10.168;2023-03-11T08:48:59;8.70;;;5.50;;
27985;SDS011;15453;53.692;10.168;2023-03-11T08:51:25;8.82;;;5.75;;
27985;SDS011;15453;53.692;10.168;2023-03-11T08:53:51;8.55;;;5.53;;
27985;SDS011;15453;53.692;10.168;2023-03-11T08:56:17;10.70;;;5.53;;
27985;SDS011;15453;53.692;10.168;2023-03-11T08:58:42;11.02;;;5.45;;
27985;SDS011;15453;53.692;10.168;2023-03-11T09:01:09;9.93;;;5.50;;
27985;SDS011;15453;53.692;10.168;2023-03-11T09:03:36;9.90;;;5.60;;
27985;SDS011;15453;53.692;10.168;2023-03-11T09:06:03;7.72;;;5.20;;
27985;SDS011;15453;53.692;10.168;2023-03-11T09:08:30;8.13;;;5.10;;
27985;SDS011;15453;53.692;10.168;2023-03-11T09:10:56;7.88;;;4.95;;
27985;SDS011;15453;53.692;10.168;2023-03-11T09:13:21;8.00;;;5.45;;
27985;SDS011;15453;53.692;10.168;2023-03-11T09:15:47;8.77;;;5.60;;
27985;SDS011;15453;53.692;10.168;2023-03-11T09:18:14;8.00;;;5.07;;
27985;SDS011;15453;53.692;10.168;2023-03-11T09:20:40;7.85;;;4.38;;
27985;SDS011;15453;53.692;10.168;2023-03-11T09:23:06;10.18;;;4.75;;
27985;SDS011;15453;53.692;10.168;2023-03-11T09:25:32;8.65;;;5.22;;
27985;SDS011;15453;53.692;10.168;2023-03-11T09:27:57;6.55;;;4.35;;
27985;SDS011;15453;53.692;10.168;2023-03-11T09:30:22;11.48;;;5.90;;
27985;SDS011;15453;53.692;10.168;2023-03-11T09:32:47;10.48;;;5.10;;
27985;SDS011;15453;53.692;10.168;2023-03-11T09:35:13;8.27;;;4.90;;
27985;SDS011;15453;53.692;10.168;2023-03-11T09:37:38;7.10;;;4.90;;
27985;SDS011;15453;53.692;10.168;2023-03-11T09:40:03;7.78;;;4.47;;
27985;SDS011;15453;53.692;10.168;2023-03-11T09:45:29;10.32;;;4.22;;
27985;SDS011;15453;53.692;10.168;2023-03-11T09:50:48;6.65;;;3.67;;
27985;SDS011;15453;53.692;10.168;2023-03-11T09:56:06;9.70;;;4.00;;
27985;SDS011;15453;53.692;10.168;2023-03-11T10:01:22;4.35;;;3.40;;
27985;SDS011;15453;53.692;10.168;2023-03-11T10:03:52;5.82;;;3.67;;
27985;SDS011;15453;53.692;10.168;2023-03-11T10:06:20;8.38;;;3.22;;
27985;SDS011;15453;53.692;10.168;2023-03-11T10:08:51;5.85;;;3.50;;
27985;SDS011;15453;53.692;10.168;2023-03-11T10:11:26;6.57;;;2.90;;
27985;SDS011;15453;53.692;10.168;2023-03-11T10:14:00;6.18;;;3.20;;
27985;SDS011;15453;53.692;10.168;2023-03-11T10:16:31;6.78;;;2.72;;
27985;SDS011;15453;53.692;10.168;2023-03-11T10:19:14;5.80;;;3.33;;
27985;SDS011;15453;53.692;10.168;2023-03-11T10:21:52;6.47;;;3.10;;
27985;SDS011;15453;53.692;10.168;2023-03-11T10:24:41;6.70;;;3.30;;
27985;SDS011;15453;53.692;10.168;2023-03-11T10:27:19;8.30;;;3.58;;
27985;SDS011;15453;53.692;10.168;2023-03-11T10:32:30;6.15;;;3.10;;
27985;SDS011;15453;53.692;10.168;2023-03-11T10:38:02;5.93;;;2.45;;
27985;SDS011;15453;53.692;10.168;2023-03-11T10:40:36;5.82;;;2.75;;
27985;SDS011;15453;53.692;10.168;2023-03-11T10:43:12;6.78;;;2.40;;
27985;SDS011;15453;53.692;10.168;2023-03-11T10:45:41;3.67;;;2.33;;
27985;SDS011;15453;53.692;10.168;2023-03-11T10:48:12;5.03;;;2.47;;
27985;SDS011;15453;53.692;10.168;2023-03-11T10:50:48;8.30;;;2.50;;
27985;SDS011;15453;53.692;10.168;2023-03-11T10:53:32;7.35;;;2.80;;
27985;SDS011;15453;53.692;10.168;2023-03-11T10:56:09;4.85;;;2.40;;
27985;SDS011;15453;53.692;10.168;2023-03-11T10:58:50;7.47;;;3.72;;
27985;SDS011;15453;53.692;10.168;2023-03-11T11:01:16;6.30;;;3.15;;
27985;SDS011;15453;53.692;10.168;2023-03-11T11:03:44;8.20;;;4.13;;
27985;SDS011;15453;53.692;10.168;2023-03-11T11:06:26;10.20;;;4.93;;
27985;SDS011;15453;53.692;10.168;2023-03-11T11:11:59;9.57;;;2.78;;
27985;SDS011;15453;53.692;10.168;2023-03-11T11:14:43;5.72;;;2.63;;
27985;SDS011;15453;53.692;10.168;2023-03-11T11:17:15;4.80;;;2.58;;
27985;SDS011;15453;53.692;10.168;2023-03-11T11:19:45;5.68;;;2.47;;
27985;SDS011;15453;53.692;10.168;2023-03-11T11:22:14;6.30;;;2.63;;
27985;SDS011;15453;53.692;10.168;2023-03-11T11:24:42;6.88;;;2.38;;
27985;SDS011;15453;53.692;10.168;2023-03-11T11:29:45;4.53;;;2.45;;
27985;SDS011;15453;53.692;10.168;2023-03-11T11:34:37;5.78;;;2.42;;
27985;SDS011;15453;53.692;10.168;2023-03-11T11:37:03;12.18;;;2.80;;
27985;SDS011;15453;53.692;10.168;2023-03-11T11:39:31;5.78;;;2.55;;
27985;SDS011;15453;53.692;10.168;2023-03-11T11:42:05;7.40;;;2.30;;
27985;SDS011;15453;53.692;10.168;2023-03-11T11:44:31;6.35;;;2.60;;
27985;SDS011;15453;53.692;10.168;2023-03-11T11:47:12;6.15;;;2.58;;
27985;SDS011;15453;53.692;10.168;2023-03-11T11:49:43;7.63;;;3.03;;
27985;SDS011;15453;53.692;10.168;2023-03-11T11:52:26;5.43;;;2.45;;
27985;SDS011;15453;53.692;10.168;2023-03-11T11:57:25;6.55;;;2.78;;
27985;SDS011;15453;53.692;10.168;2023-03-11T11:59:51;6.10;;;2.15;;
27985;SDS011;15453;53.692;10.168;2023-03-11T12:10:44;6.28;;;2.63;;
27985;SDS011;15453;53.692;10.168;2023-03-11T12:16:19;5.47;;;1.85;;
27985;SDS011;15453;53.692;10.168;2023-03-11T12:18:53;2.50;;;1.52;;
27985;SDS011;15453;53.692;10.168;2023-03-11T12:27:17;5.95;;;1.42;;
27985;SDS011;15453;53.692;10.168;2023-03-11T12:29:46;2.47;;;1.45;;
27985;SDS011;15453;53.692;10.168;2023-03-11T12:32:23;5.70;;;1.77;;
27985;SDS011;15453;53.692;10.168;2023-03-11T12:35:08;3.80;;;1.98;;
27985;SDS011;15453;53.692;10.168;2023-03-11T12:37:43;3.17;;;1.45;;
27985;SDS011;15453;53.692;10.168;2023-03-11T12:46:12;4.18;;;1.70;;
27985;SDS011;15453;53.692;10.168;2023-03-11T12:56:58;5.55;;;1.00;;
27985;SDS011;15453;53.692;10.168;2023-03-11T13:07:58;7.85;;;1.30;;
27985;SDS011;15453;53.692;10.168;2023-03-11T13:10:37;4.10;;;0.90;;
27985;SDS011;15453;53.692;10.168;2023-03-11T13:15:55;5.78;;;2.00;;
27985;SDS011;15453;53.692;10.168;2023-03-11T13:18:27;5.72;;;1.25;;
27985;SDS011;15453;53.692;10.168;2023-03-11T13:20:57;5.90;;;1.42;;
27985;SDS011;15453;53.692;10.168;2023-03-11T13:23:31;4.65;;;1.00;;
27985;SDS011;15453;53.692;10.168;2023-03-11T13:34:29;2.13;;;0.80;;
27985;SDS011;15453;53.692;10.168;2023-03-11T13:37:12;6.57;;;1.00;;
27985;SDS011;15453;53.692;10.168;2023-03-11T13:39:52;2.70;;;0.77;;
27985;SDS011;15453;53.692;10.168;2023-03-11T13:42:28;3.47;;;0.85;;
27985;SDS011;15453;53.692;10.168;2023-03-11T13:44:57;3.95;;;0.90;;
27985;SDS011;15453;53.692;10.168;2023-03-11T13:47:23;2.78;;;0.80;;
27985;SDS011;15453;53.692;10.168;2023-03-11T13:50:09;3.08;;;0.82;;
27985;SDS011;15453;53.692;10.168;2023-03-11T13:52:47;3.85;;;0.80;;
27985;SDS011;15453;53.692;10.168;2023-03-11T13:55:18;5.07;;;1.17;;
27985;SDS011;15453;53.692;10.168;2023-03-11T13:57:50;4.97;;;0.95;;
27985;SDS011;15453;53.692;10.168;2023-03-11T14:00:18;4.60;;;0.85;;
27985;SDS011;15453;53.692;10.168;2023-03-11T14:02:49;2.47;;;0.90;;
27985;SDS011;15453;53.692;10.168;2023-03-11T14:05:26;4.18;;;1.08;;
27985;SDS011;15453;53.692;10.168;2023-03-11T14:07:54;5.00;;;1.10;;
27985;SDS011;15453;53.692;10.168;2023-03-11T14:10:35;4.03;;;1.00;;
27985;SDS011;15453;53.692;10.168;2023-03-11T14:13:19;4.47;;;0.80;;
27985;SDS011;15453;53.692;10.168;2023-03-11T14:15:46;2.95;;;0.80;;
27985;SDS011;15453;53.692;10.168;2023-03-11T14:21:28;2.22;;;0.93;;
27985;SDS011;15453;53.692;10.168;2023-03-11T14:23:55;2.33;;;0.63;;
27985;SDS011;15453;53.692;10.168;2023-03-11T14:26:22;3.08;;;0.75;;
27985;SDS011;15453;53.692;10.168;2023-03-11T14:28:51;6.03;;;1.07;;
27985;SDS011;15453;53.692;10.168;2023-03-11T14:31:21;3.40;;;0.93;;
27985;SDS011;15453;53.692;10.168;2023-03-11T14:33:59;7.72;;;1.25;;
27985;SDS011;15453;53.692;10.168;2023-03-11T14:36:50;5.50;;;1.00;;
27985;SDS011;15453;53.692;10.168;2023-03-11T14:42:11;7.82;;;1.38;;
27985;SDS011;15453;53.692;10.168;2023-03-11T14:44:43;2.53;;;0.90;;
27985;SDS011;15453;53.692;10.168;2023-03-11T14:47:22;2.85;;;0.77;;
27985;SDS011;15453;53.692;10.168;2023-03-11T14:50:12;3.45;;;0.70;;
27985;SDS011;15453;53.692;10.168;2023-03-11T14:52:51;2.97;;;0.70;;
27985;SDS011;15453;53.692;10.168;2023-03-11T14:55:20;9.23;;;1.38;;
27985;SDS011;15453;53.692;10.168;2023-03-11T14:57:56;5.38;;;0.93;;
27985;SDS011;15453;53.692;10.168;2023-03-11T15:00:38;2.05;;;0.70;;
27985;SDS011;15453;53.692;10.168;2023-03-11T15:03:31;5.40;;;1.05;;
27985;SDS011;15453;53.692;10.168;2023-03-11T15:06:03;3.45;;;0.70;;
27985;SDS011;15453;53.692;10.168;2023-03-11T15:08:34;3.17;;;0.90;;
27985;SDS011;15453;53.692;10.168;2023-03-11T15:13:36;2.42;;;1.10;;
27985;SDS011;15453;53.692;10.168;2023-03-11T15:16:04;6.10;;;0.95;;
27985;SDS011;15453;53.692;10.168;2023-03-11T15:18:50;2.58;;;0.93;;
27985;SDS011;15453;53.692;10.168;2023-03-11T15:21:19;6.70;;;1.30;;
27985;SDS011;15453;53.692;10.168;2023-03-11T15:23:56;2.80;;;0.85;;
27985;SDS011;15453;53.692;10.168;2023-03-11T15:26:26;4.43;;;1.17;;
27985;SDS011;15453;53.692;10.168;2023-03-11T15:29:01;2.72;;;0.98;;
27985;SDS011;15453;53.692;10.168;2023-03-11T15:31:47;3.17;;;1.00;;
27985;SDS011;15453;53.692;10.168;2023-03-11T15:41:41;3.10;;;1.00;;
27985;SDS011;15453;53.692;10.168;2023-03-11T15:44:24;2.50;;;0.80;;
27985;SDS011;15453;53.692;10.168;2023-03-11T15:46:53;3.05;;;0.82;;
27985;SDS011;15453;53.692;10.168;2023-03-11T15:49:19;2.88;;;0.80;;
27985;SDS011;15453;53.692;10.168;2023-03-11T15:51:44;3.42;;;1.20;;
27985;SDS011;15453;53.692;10.168;2023-03-11T15:54:10;4.97;;;1.20;;
27985;SDS011;15453;53.692;10.168;2023-03-11T15:56:35;6.03;;;1.20;;
27985;SDS011;15453;53.692;10.168;2023-03-11T15:59:01;3.25;;;0.90;;
27985;SDS011;15453;53.692;10.168;2023-03-11T16:01:26;3.72;;;0.68;;
27985;SDS011;15453;53.692;10.168;2023-03-11T16:03:54;1.30;;;0.50;;
27985;SDS011;15453;53.692;10.168;2023-03-11T16:06:19;3.08;;;0.95;;
27985;SDS011;15453;53.692;10.168;2023-03-11T16:08:46;3.30;;;0.63;;